Time;durP1;ratioP1;P1;durP2;ratioP2;P2;SDS_P1;SDS_P2;PMS_P1;PMS_P2;Temp;Humidity;BMP_temperature;BMP_pressure;BME280_temperature;BME280_humidity;BME280_pressure;Samples;Min_cycle;Max_cycle;Signal;HPM_P1;HPM_P2
2023/11/13 06:46:18;;;;;;;3.45;2.33;;;;;;;;;;10670125;27;20833;-84
2023/11/13 06:51:20;;;;;;;3.58;2.20;;;;;;;;;;10631708;28;20053;-85
2023/11/13 07:13:32;;;;;;;2.95;2.20;;;;;;;;;;10494188;28;20392;-90
2023/11/13 07:24:53;;;;;;;3.15;2.25;;;;;;;;;;10494178;28;20176;-89
2023/11/13 07:30:13;;;;;;;3.50;2.53;;;;;;;;;;10488064;28;20032;-90
2023/11/13 07:35:14;;;;;;;5.32;2.85;;;;;;;;;;10494806;28;20088;-89
2023/11/13 07:40:15;;;;;;;;;;;;;;;;;;10518743;28;20092;-87
2023/11/13 07:45:17;;;;;;;2.90;2.45;;;;;;;;;;10497674;28;20007;-88
2023/11/13 07:50:18;;;;;;;3.75;2.70;;;;;;;;;;10475721;28;20419;-88
2023/11/13 07:55:19;;;;;;;;;;;;;;;;;;10462175;28;20028;-89
2023/11/13 08:00:23;;;;;;;3.67;2.38;;;;;;;;;;10451727;28;19909;-88
2023/11/13 08:05:26;;;;;;;3.50;2.40;;;;;;;;;;10447034;28;20033;-89
2023/11/13 08:10:28;;;;;;;4.97;2.40;;;;;;;;;;10449999;28;20029;-86
2023/11/13 08:15:30;;;;;;;3.60;2.33;;;;;;;;;;10456783;28;20033;-85
2023/11/13 08:20:31;;;;;;;5.88;2.58;;;;;;;;;;10458604;28;20435;-83
2023/11/13 08:25:32;;;;;;;;;;;;;;;;;;10459466;28;20112;-83
2023/11/13 08:30:33;;;;;;;4.97;3.03;;;;;;;;;;10458720;28;19936;-84
2023/11/13 08:35:34;;;;;;;;;;;;;;;;;;10447724;28;20033;-83
2023/11/13 08:40:36;;;;;;;4.95;2.97;;;;;;;;;;10480794;28;19968;-84
2023/11/13 08:45:40;;;;;;;4.18;2.30;;;;;;;;;;10483492;28;20041;-82
2023/11/13 08:50:44;;;;;;;4.97;2.10;;;;;;;;;;10461911;28;20049;-83
2023/11/13 08:55:44;;;;;;;3.97;2.20;;;;;;;;;;10446365;28;20025;-82
2023/11/13 09:00:47;;;;;;;;;;;;;;;;;;10450776;28;20490;-82
2023/11/13 09:05:49;;;;;;;4.57;2.20;;;;;;;;;;10468509;28;19909;-82
2023/11/13 09:10:50;;;;;;;5.70;2.33;;;;;;;;;;10445504;28;20084;-83
2023/11/13 09:15:51;;;;;;;;;;;;;;;;;;10462379;28;20033;-83
2023/11/13 09:20:54;;;;;;;6.65;1.95;;;;;;;;;;10454818;28;19995;-84
2023/11/13 09:25:55;;;;;;;4.35;1.85;;;;;;;;;;10455511;28;20037;-83
2023/11/13 09:30:56;;;;;;;;;;;;;;;;;;10474217;28;20048;-83
2023/11/13 09:35:57;;;;;;;5.00;1.90;;;;;;;;;;10462229;28;19955;-83
2023/11/13 09:41:03;;;;;;;;;;;;;;;;;;10457564;28;20044;-83
2023/11/13 09:46:06;;;;;;;5.60;2.20;;;;;;;;;;10464495;28;19915;-83
2023/11/13 09:51:08;;;;;;;4.28;1.80;;;;;;;;;;10470261;28;20067;-84
2023/11/13 09:56:12;;;;;;;5.25;2.30;;;;;;;;;;10475640;28;20036;-83
2023/11/13 10:01:14;;;;;;;4.80;1.80;;;;;;;;;;10462328;28;20053;-82
2023/11/13 10:06:16;;;;;;;3.80;1.80;;;;;;;;;;10451777;28;20473;-83
2023/11/13 10:11:17;;;;;;;4.80;1.83;;;;;;;;;;10451622;28;20120;-84
2023/11/13 10:16:18;;;;;;;;;;;;;;;;;;10451602;28;20452;-82
2023/11/13 10:21:40;;;;;;;4.07;1.58;;;;;;;;;;10448449;28;19916;-82
2023/11/13 10:26:41;;;;;;;;;;;;;;;;;;10464899;28;20021;-81
2023/11/13 10:31:42;;;;;;;;;;;;;;;;;;10458450;28;19914;-82
2023/11/13 10:36:44;;;;;;;3.05;1.90;;;;;;;;;;10451198;28;19905;-82
2023/11/13 10:41:46;;;;;;;5.18;2.00;;;;;;;;;;10451605;28;20040;-82
2023/11/13 10:46:47;;;;;;;3.08;1.20;;;;;;;;;;10450409;28;20474;-84
2023/11/13 10:51:49;;;;;;;6.00;2.28;;;;;;;;;;10449828;28;20542;-85
2023/11/13 10:56:50;;;;;;;3.53;1.73;;;;;;;;;;10451632;28;20578;-85
2023/11/13 11:01:55;;;;;;;2.90;1.67;;;;;;;;;;10463119;28;20029;-84
2023/11/13 11:06:57;;;;;;;2.53;1.38;;;;;;;;;;10468145;28;20079;-84
2023/11/13 11:11:58;;;;;;;2.72;1.50;;;;;;;;;;10449356;28;20036;-85
2023/11/13 11:17:00;;;;;;;;;;;;;;;;;;10468325;28;20082;-85
2023/11/13 11:22:04;;;;;;;2.42;1.27;;;;;;;;;;10451539;28;19916;-84
2023/11/13 11:27:05;;;;;;;3.22;1.40;;;;;;;;;;10450293;28;20017;-84
2023/11/13 11:32:10;;;;;;;;;;;;;;;;;;10476311;28;20029;-83
2023/11/13 11:37:13;;;;;;;2.50;1.38;;;;;;;;;;10457637;28;19909;-83
2023/11/13 11:42:19;;;;;;;2.95;1.20;;;;;;;;;;10455586;28;20544;-83
2023/11/13 11:47:25;;;;;;;7.05;3.72;;;;;;;;;;10465639;28;20021;-82
2023/11/13 11:52:51;;;;;;;4.82;1.80;;;;;;;;;;10457246;28;20066;-83
2023/11/13 11:57:53;;;;;;;3.25;1.33;;;;;;;;;;10472889;28;20033;-83
2023/11/13 12:02:56;;;;;;;3.28;1.60;;;;;;;;;;10455631;28;20074;-82
2023/11/13 12:07:57;;;;;;;3.55;1.40;;;;;;;;;;10479734;28;20025;-82
2023/11/13 12:12:58;;;;;;;;;;;;;;;;;;10461103;28;20540;-82
2023/11/13 12:17:59;;;;;;;1.60;1.17;;;;;;;;;;10451321;28;20003;-83
2023/11/13 12:23:01;;;;;;;3.88;1.48;;;;;;;;;;10452631;28;20037;-83
2023/11/13 12:28:02;;;;;;;5.53;2.53;;;;;;;;;;10455071;28;20029;-82
2023/11/13 12:33:04;;;;;;;3.63;1.58;;;;;;;;;;10457221;28;20033;-82
2023/11/13 12:38:05;;;;;;;;;;;;;;;;;;10456279;28;20056;-83
2023/11/13 12:43:06;;;;;;;3.83;1.42;;;;;;;;;;10454198;28;19934;-82
2023/11/13 12:48:06;;;;;;;;;;;;;;;;;;10456300;28;20029;-84
2023/11/13 12:53:11;;;;;;;6.18;2.63;;;;;;;;;;10457152;28;20364;-82
2023/11/13 12:58:16;;;;;;;4.10;1.60;;;;;;;;;;10500786;22;20049;-81
2023/11/13 13:03:17;;;;;;;4.28;1.73;;;;;;;;;;10491320;28;20056;-80
2023/11/13 13:08:18;;;;;;;;;;;;;;;;;;10510409;28;20024;-80
2023/11/13 13:13:19;;;;;;;2.33;1.20;;;;;;;;;;10489249;28;20318;-80
2023/11/13 13:18:20;;;;;;;3.17;1.30;;;;;;;;;;10487838;28;20035;-80
2023/11/13 13:23:22;;;;;;;;;;;;;;;;;;10488641;28;20551;-80
2023/11/13 13:28:23;;;;;;;2.78;1.23;;;;;;;;;;10488363;28;19931;-80
2023/11/13 13:33:24;;;;;;;3.17;1.25;;;;;;;;;;10488316;28;20088;-80
2023/11/13 13:38:25;;;;;;;;;;;;;;;;;;10489260;28;20060;-80
2023/11/13 13:43:27;;;;;;;1.90;1.10;;;;;;;;;;10491002;28;19914;-80
2023/11/13 13:48:31;;;;;;;2.70;0.93;;;;;;;;;;10490282;28;20341;-83
2023/11/13 13:53:34;;;;;;;3.35;1.45;;;;;;;;;;10509828;28;20021;-82
2023/11/13 13:58:37;;;;;;;2.92;1.40;;;;;;;;;;10487098;28;20372;-79
2023/11/13 14:03:38;;;;;;;3.22;1.52;;;;;;;;;;10489648;28;20062;-83
2023/11/13 14:08:39;;;;;;;;;;;;;;;;;;10494561;28;20341;-79
2023/11/13 14:13:41;;;;;;;5.47;3.20;;;;;;;;;;10494894;28;19905;-82
2023/11/13 14:18:42;;;;;;;2.47;1.45;;;;;;;;;;10492902;28;20036;-82
2023/11/13 14:23:43;;;;;;;;;;;;;;;;;;10490055;28;20131;-79
2023/11/13 14:28:44;;;;;;;4.93;1.92;;;;;;;;;;10499306;28;19994;-83
2023/11/13 14:33:45;;;;;;;2.10;1.10;;;;;;;;;;10507586;28;20036;-79
2023/11/13 14:38:47;;;;;;;;;;;;;;;;;;10506143;28;20064;-80
2023/11/13 14:43:48;;;;;;;2.05;1.10;;;;;;;;;;10530151;28;19947;-79
2023/11/13 14:48:49;;;;;;;;;;;;;;;;;;10515060;28;20025;-82
2023/11/13 14:53:52;;;;;;;2.22;1.40;;;;;;;;;;10511147;28;20046;-82
2023/11/13 14:58:53;;;;;;;3.05;1.27;;;;;;;;;;10493813;28;20071;-82
2023/11/13 15:03:55;;;;;;;;;;;;;;;;;;10496361;28;20039;-80
2023/11/13 15:08:56;;;;;;;3.00;1.67;;;;;;;;;;10515359;28;19904;-79
2023/11/13 15:13:57;;;;;;;;;;;;;;;;;;10506400;28;20025;-80
2023/11/13 15:18:59;;;;;;;3.47;1.85;;;;;;;;;;10519836;28;19909;-82
2023/11/13 15:24:01;;;;;;;4.95;1.58;;;;;;;;;;10498967;28;20171;-80
2023/11/13 15:29:03;;;;;;;2.42;1.10;;;;;;;;;;10500198;28;20024;-82
2023/11/13 15:34:05;;;;;;;3.92;2.15;;;;;;;;;;10518002;28;20060;-81
2023/11/13 15:39:08;;;;;;;3.50;1.70;;;;;;;;;;10498740;28;20591;-82
2023/11/13 15:44:09;;;;;;;2.67;1.15;;;;;;;;;;10529990;28;20071;-83
2023/11/13 15:49:10;;;;;;;;;;;;;;;;;;10519719;28;20032;-81
2023/11/13 15:54:12;;;;;;;3.72;2.28;;;;;;;;;;10498206;28;19910;-82
2023/11/13 15:59:13;;;;;;;3.60;1.50;;;;;;;;;;10496842;28;20516;-82
2023/11/13 16:04:14;;;;;;;;;;;;;;;;;;10497808;28;20100;-82
2023/11/13 16:09:15;;;;;;;4.03;1.58;;;;;;;;;;10497762;28;19904;-82
2023/11/13 16:14:20;;;;;;;3.42;1.30;;;;;;;;;;10515485;28;20453;-83
2023/11/13 16:19:21;;;;;;;5.57;1.60;;;;;;;;;;10514982;28;20039;-82
2023/11/13 16:24:22;;;;;;;;;;;;;;;;;;10495744;28;20031;-82
2023/11/13 16:29:23;;;;;;;5.85;2.17;;;;;;;;;;10495794;28;19927;-82
2023/11/13 16:34:24;;;;;;;;;;;;;;;;;;10494611;28;20082;-81
2023/11/13 16:39:25;;;;;;;6.20;2.08;;;;;;;;;;10493574;28;19911;-82
2023/11/13 16:44:27;;;;;;;5.07;1.60;;;;;;;;;;10495268;28;20104;-82
2023/11/13 16:49:28;;;;;;;3.80;1.40;;;;;;;;;;10494730;28;20111;-83
2023/11/13 16:54:29;;;;;;;;;;;;;;;;;;10496496;28;20041;-84
2023/11/13 16:59:31;;;;;;;5.22;1.50;;;;;;;;;;10497724;28;19912;-83
2023/11/13 17:04:32;;;;;;;3.60;1.42;;;;;;;;;;10495978;28;20033;-83
2023/11/13 17:09:33;;;;;;;4.95;1.65;;;;;;;;;;10494807;28;20025;-83
2023/11/13 17:14:34;;;;;;;;;;;;;;;;;;10493714;28;20123;-83
2023/11/13 17:19:35;;;;;;;5.25;2.22;;;;;;;;;;10514477;28;19904;-83
2023/11/13 17:24:37;;;;;;;;;;;;;;;;;;10499961;28;20101;-83
2023/11/13 17:29:39;;;;;;;7.15;1.90;;;;;;;;;;10499456;28;19905;-85
2023/11/13 17:34:40;;;;;;;6.47;1.95;;;;;;;;;;10498651;28;20028;-85
2023/11/13 17:39:42;;;;;;;9.02;2.60;;;;;;;;;;10496630;28;20028;-85
2023/11/13 17:44:43;;;;;;;9.88;2.40;;;;;;;;;;10498517;28;20039;-85
2023/11/13 17:49:45;;;;;;;;;;;;;;;;;;10496773;28;20020;-85
2023/11/13 17:54:47;;;;;;;8.73;2.70;;;;;;;;;;10500325;28;20003;-85
2023/11/13 17:59:49;;;;;;;9.80;2.80;;;;;;;;;;10501696;28;20041;-87
2023/11/13 18:04:50;;;;;;;7.03;1.90;;;;;;;;;;10498179;28;20058;-85
2023/11/13 18:09:51;;;;;;;7.43;2.33;;;;;;;;;;10514926;28;20020;-84
2023/11/13 18:14:52;;;;;;;;;;;;;;;;;;10499332;28;20040;-87
2023/11/13 18:19:53;;;;;;;7.07;2.33;;;;;;;;;;10497999;28;19911;-85
2023/11/13 18:24:54;;;;;;;10.50;2.72;;;;;;;;;;10496877;28;20134;-85
2023/11/13 18:29:55;;;;;;;11.32;2.97;;;;;;;;;;10497255;28;20030;-84
2023/11/13 18:34:56;;;;;;;;;;;;;;;;;;10495704;28;20044;-86
2023/11/13 18:39:59;;;;;;;7.45;2.67;;;;;;;;;;10492621;28;19922;-83
2023/11/13 18:45:00;;;;;;;13.10;2.58;;;;;;;;;;10497047;28;20119;-85
2023/11/13 18:50:01;;;;;;;10.43;2.92;;;;;;;;;;10491616;28;20093;-85
2023/11/13 18:55:03;;;;;;;12.82;3.05;;;;;;;;;;10496541;28;20029;-85
2023/11/13 19:00:05;;;;;;;10.68;2.20;;;;;;;;;;10544672;22;20411;-84
2023/11/13 19:05:06;;;;;;;11.02;2.90;;;;;;;;;;10482605;28;20055;-84
2023/11/13 19:10:08;;;;;;;;;;;;;;;;;;10484490;28;20025;-84
2023/11/13 19:15:09;;;;;;;9.38;2.65;;;;;;;;;;10481794;28;19958;-85
2023/11/13 19:20:13;;;;;;;11.18;3.10;;;;;;;;;;10482257;28;20033;-84
2023/11/13 19:25:14;;;;;;;13.57;3.25;;;;;;;;;;10481612;28;20035;-84
2023/11/13 19:30:15;;;;;;;10.93;3.10;;;;;;;;;;10483982;28;20024;-85
2023/11/13 19:35:17;;;;;;;13.23;3.60;;;;;;;;;;10482747;28;20029;-84
2023/11/13 19:40:18;;;;;;;12.70;3.42;;;;;;;;;;10484677;28;20028;-85
2023/11/13 19:45:20;;;;;;;18.83;4.30;;;;;;;;;;10486287;28;20032;-84
2023/11/13 19:50:25;;;;;;;12.85;2.65;;;;;;;;;;10489764;28;20020;-85
2023/11/13 19:55:26;;;;;;;10.60;3.65;;;;;;;;;;10514260;28;20025;-84
2023/11/13 20:00:27;;;;;;;;;;;;;;;;;;10516953;28;20373;-84
2023/11/13 20:05:30;;;;;;;13.10;3.60;;;;;;;;;;10511669;28;19908;-83
2023/11/13 20:10:31;;;;;;;13.48;3.60;;;;;;;;;;10502556;28;20056;-84
